createdAt,value
2023-05-08T00:00:06.745Z,2.70
2023-05-08T00:02:37.129Z,2.69
2023-05-08T00:05:06.955Z,2.66
2023-05-08T00:07:35.681Z,2.56
2023-05-08T00:10:04.768Z,2.54
2023-05-08T00:12:33.740Z,2.48
2023-05-08T00:15:02.910Z,2.44
2023-05-08T00:17:31.876Z,2.40
2023-05-08T00:20:03.060Z,2.40
2023-05-08T00:22:31.555Z,2.33
2023-05-08T00:25:00.443Z,2.28
2023-05-08T00:27:29.394Z,2.26
2023-05-08T00:29:58.705Z,2.25
2023-05-08T00:32:27.806Z,2.27
2023-05-08T00:34:56.466Z,2.29
2023-05-08T00:37:27.127Z,2.32
2023-05-08T00:39:56.108Z,2.29
2023-05-08T00:42:24.968Z,2.30
2023-05-08T00:44:54.081Z,2.28
2023-05-08T00:47:23.633Z,2.26
2023-05-08T00:49:52.292Z,2.25
2023-05-08T00:52:21.777Z,2.24
2023-05-08T00:54:52.251Z,2.21
2023-05-08T00:57:20.811Z,2.26
2023-05-08T00:59:51.680Z,2.19
2023-05-08T01:02:21.093Z,2.14
2023-05-08T01:04:50.160Z,2.09
2023-05-08T01:07:19.633Z,2.04
2023-05-08T01:09:48.462Z,1.98
2023-05-08T01:12:22.793Z,1.98
2023-05-08T01:15:01.310Z,2.02
2023-05-08T01:17:39.929Z,1.95
2023-05-08T01:20:19.620Z,1.95
2023-05-08T01:23:30.187Z,1.95
2023-05-08T01:26:19.069Z,1.91
2023-05-08T01:29:17.537Z,1.87
2023-05-08T01:32:03.607Z,1.81
2023-05-08T01:34:33.967Z,1.75
2023-05-08T01:37:03.720Z,1.78
2023-05-08T01:39:38.400Z,1.79
2023-05-08T01:42:19.944Z,1.77
2023-05-08T01:45:05.779Z,1.73
2023-05-08T01:47:38.803Z,1.76
2023-05-08T01:50:14.188Z,1.75
2023-05-08T01:52:47.073Z,1.72
2023-05-08T01:55:21.897Z,1.75
2023-05-08T01:57:53.150Z,1.73
2023-05-08T02:00:23.706Z,1.69
2023-05-08T02:02:54.979Z,1.68
2023-05-08T02:05:25.207Z,1.68
2023-05-08T02:07:54.846Z,1.62
2023-05-08T02:10:26.009Z,1.67
2023-05-08T02:12:56.109Z,1.58
2023-05-08T02:15:25.197Z,1.60
2023-05-08T02:17:55.971Z,1.55
2023-05-08T02:20:24.878Z,1.56
2023-05-08T02:22:53.832Z,1.50
2023-05-08T02:25:23.713Z,1.52
2023-05-08T02:27:55.089Z,1.51
2023-05-08T02:30:26.375Z,1.53
2023-05-08T02:33:00.291Z,1.56
2023-05-08T02:35:31.629Z,1.59
2023-05-08T02:38:00.910Z,1.56
2023-05-08T02:40:30.923Z,1.62
2023-05-08T02:43:00.235Z,1.67
2023-05-08T02:45:34.655Z,1.74
2023-05-08T02:48:12.147Z,1.75
2023-05-08T02:50:47.197Z,1.78
2023-05-08T02:53:22.034Z,1.80
2023-05-08T02:55:52.220Z,1.79
2023-05-08T02:58:26.121Z,1.79
2023-05-08T03:00:59.566Z,1.84
2023-05-08T03:03:35.580Z,1.86
2023-05-08T03:06:05.321Z,1.79
2023-05-08T03:08:35.995Z,1.83
2023-05-08T03:11:09.488Z,1.84
2023-05-08T03:13:40.457Z,1.87
2023-05-08T03:16:13.592Z,1.93
2023-05-08T03:18:48.861Z,1.98
2023-05-08T03:21:19.920Z,2.04
2023-05-08T03:23:49.879Z,2.05
2023-05-08T03:26:21.366Z,2.12
2023-05-08T03:28:51.882Z,2.12
2023-05-08T03:31:23.917Z,2.28
2023-05-08T03:33:56.137Z,2.47
2023-05-08T03:36:27.196Z,2.68
2023-05-08T03:38:56.822Z,2.79
2023-05-08T03:41:27.005Z,2.97
2023-05-08T03:43:56.698Z,3.06
2023-05-08T03:46:25.914Z,3.12
2023-05-08T03:48:56.432Z,3.23
2023-05-08T03:51:25.517Z,3.30
2023-05-08T03:53:54.439Z,3.34
2023-05-08T03:56:25.857Z,3.48
2023-05-08T03:58:58.550Z,3.64
2023-05-08T04:01:31.135Z,3.77
2023-05-08T04:04:07.972Z,3.77
2023-05-08T04:06:49.533Z,3.93
2023-05-08T04:09:27.863Z,4.09
2023-05-08T04:12:03.934Z,4.24
2023-05-08T04:14:39.083Z,4.40
2023-05-08T04:17:11.339Z,4.54
2023-05-08T04:19:47.703Z,4.78
2023-05-08T04:22:16.808Z,4.86
2023-05-08T04:24:47.127Z,4.98
2023-05-08T04:27:15.794Z,5.20
2023-05-08T04:29:44.784Z,5.26
2023-05-08T04:32:14.095Z,5.29
2023-05-08T04:34:44.592Z,5.37
2023-05-08T04:37:23.069Z,5.59
2023-05-08T04:39:52.488Z,5.71
2023-05-08T04:42:22.709Z,5.94
2023-05-08T04:44:51.756Z,6.08
2023-05-08T04:47:21.182Z,6.02
2023-05-08T04:49:51.326Z,6.06
2023-05-08T04:52:19.945Z,6.14
2023-05-08T04:54:48.848Z,6.21
2023-05-08T04:57:17.938Z,6.30
2023-05-08T04:59:47.031Z,6.41
2023-05-08T05:02:16.375Z,6.55
2023-05-08T05:04:45.119Z,6.40
2023-05-08T05:07:15.645Z,6.61
2023-05-08T05:09:44.630Z,6.73
2023-05-08T05:12:13.597Z,6.82
2023-05-08T05:14:42.729Z,6.77
2023-05-08T05:17:11.775Z,6.78
2023-05-08T05:19:40.482Z,7.00
2023-05-08T05:22:09.664Z,7.07
2023-05-08T05:24:41.083Z,7.28
2023-05-08T05:27:11.745Z,7.05
2023-05-08T05:29:40.973Z,7.15
2023-05-08T05:32:11.853Z,7.38
2023-05-08T05:34:41.933Z,7.41
2023-05-08T05:37:11.363Z,7.21
2023-05-08T05:39:41.797Z,7.26
2023-05-08T05:42:13.547Z,7.53
2023-05-08T05:44:43.030Z,7.69
2023-05-08T05:47:12.098Z,7.81
2023-05-08T05:49:43.226Z,7.84
2023-05-08T05:52:12.805Z,8.08
2023-05-08T05:54:43.244Z,8.07
2023-05-08T05:57:13.318Z,8.11
2023-05-08T05:59:42.685Z,8.35
2023-05-08T06:02:16.612Z,8.41
2023-05-08T06:04:45.626Z,8.53
2023-05-08T06:07:14.811Z,8.40
2023-05-08T06:09:45.448Z,8.53
2023-05-08T06:12:14.456Z,8.57
2023-05-08T06:14:43.437Z,8.68
2023-05-08T06:17:12.431Z,8.72
2023-05-08T06:19:41.348Z,8.79
2023-05-08T06:22:10.317Z,8.94
2023-05-08T06:24:39.365Z,9.08
2023-05-08T06:27:09.632Z,9.23
2023-05-08T06:29:38.601Z,9.44
2023-05-08T06:32:07.894Z,9.58
2023-05-08T06:34:36.421Z,9.44
2023-05-08T06:37:05.404Z,9.48
2023-05-08T06:39:34.364Z,9.55
2023-05-08T06:42:03.712Z,9.49
2023-05-08T06:44:34.669Z,9.73
2023-05-08T06:47:03.567Z,9.97
2023-05-08T06:49:32.260Z,9.77
2023-05-08T06:52:01.347Z,9.75
2023-05-08T06:54:30.224Z,9.88
2023-05-08T06:57:00.603Z,9.53
2023-05-08T06:59:29.622Z,9.40
2023-05-08T07:01:59.965Z,9.55
2023-05-08T07:04:29.612Z,9.51
2023-05-08T07:07:00.603Z,9.71
2023-05-08T07:09:29.833Z,9.89
2023-05-08T07:11:58.680Z,9.99
2023-05-08T07:14:28.086Z,10.02
2023-05-08T07:16:56.616Z,9.53
2023-05-08T07:19:26.963Z,8.41
2023-05-08T07:21:55.649Z,8.23
2023-05-08T07:24:25.093Z,8.99
2023-05-08T07:26:54.105Z,9.60
2023-05-08T07:29:23.123Z,9.83
2023-05-08T07:31:52.217Z,10.34
2023-05-08T07:34:21.258Z,10.87
2023-05-08T07:36:53.958Z,10.59
2023-05-08T07:39:22.891Z,10.37
2023-05-08T07:41:51.894Z,11.06
2023-05-08T07:44:21.676Z,11.55
2023-05-08T07:46:50.336Z,11.94
2023-05-08T07:49:19.354Z,12.34
2023-05-08T07:51:48.289Z,12.67
2023-05-08T07:54:18.685Z,12.72
2023-05-08T07:56:47.351Z,12.54
2023-05-08T07:59:20.325Z,12.65
2023-05-08T08:01:52.988Z,12.85
2023-05-08T08:04:22.096Z,12.95
2023-05-08T08:06:50.986Z,13.16
2023-05-08T08:09:22.396Z,13.52
2023-05-08T08:11:51.145Z,13.79
2023-05-08T08:14:20.031Z,13.98
2023-05-08T08:16:48.618Z,13.88
2023-05-08T08:19:17.621Z,13.35
2023-05-08T08:21:47.494Z,13.27
2023-05-08T08:24:16.428Z,13.79
2023-05-08T08:26:46.814Z,14.09
2023-05-08T08:29:15.721Z,14.66
2023-05-08T08:31:44.249Z,14.34
2023-05-08T08:34:13.727Z,14.50
2023-05-08T08:36:42.630Z,13.94
2023-05-08T08:39:13.429Z,13.99
2023-05-08T08:41:43.610Z,14.18
2023-05-08T08:44:14.047Z,14.45
2023-05-08T08:46:51.838Z,14.93
2023-05-08T08:49:23.940Z,15.54
2023-05-08T08:51:55.074Z,15.95
2023-05-08T08:54:25.771Z,16.19
2023-05-08T08:56:55.240Z,15.77
2023-05-08T08:59:26.887Z,15.35
2023-05-08T09:01:58.017Z,15.71
2023-05-08T09:04:27.637Z,15.28
2023-05-08T09:06:58.290Z,15.03
2023-05-08T09:09:28.920Z,14.71
2023-05-08T09:11:58.012Z,14.63
2023-05-08T09:14:28.706Z,15.20
2023-05-08T09:16:56.971Z,16.26
2023-05-08T09:19:29.020Z,16.53
2023-05-08T09:22:00.932Z,15.88
2023-05-08T09:24:57.936Z,16.61
2023-05-08T09:27:28.350Z,17.35
2023-05-08T09:30:02.971Z,17.73
2023-05-08T09:32:32.558Z,17.85
2023-05-08T09:35:02.159Z,17.19
2023-05-08T09:37:31.552Z,18.15
2023-05-08T09:40:17.252Z,18.00
2023-05-08T09:42:46.381Z,17.05
2023-05-08T09:45:28.579Z,17.84
2023-05-08T09:47:57.717Z,22.42
2023-05-08T09:50:27.837Z,25.27
2023-05-08T09:52:56.860Z,26.90
2023-05-08T09:55:25.877Z,25.79
2023-05-08T09:57:57.326Z,28.18
2023-05-08T10:00:31.236Z,25.11
2023-05-08T10:03:02.272Z,27.28
2023-05-08T10:05:33.104Z,24.04
2023-05-08T10:08:20.216Z,21.54
2023-05-08T10:10:49.084Z,23.24
2023-05-08T10:13:18.075Z,25.82
2023-05-08T10:15:53.637Z,29.43
2023-05-08T10:18:23.989Z,29.88
2023-05-08T10:20:54.922Z,29.19
2023-05-08T10:23:24.292Z,31.53
2023-05-08T10:25:57.891Z,33.27
2023-05-08T10:28:42.048Z,33.78
2023-05-08T10:31:14.651Z,33.45
2023-05-08T10:33:47.038Z,34.88
2023-05-08T10:36:16.251Z,32.11
2023-05-08T10:38:45.336Z,33.12
2023-05-08T10:41:15.050Z,31.62
2023-05-08T10:43:44.374Z,32.60
2023-05-08T10:46:23.184Z,32.63
2023-05-08T10:48:57.986Z,32.72
2023-05-08T10:51:36.467Z,32.96
2023-05-08T10:54:10.314Z,32.85
2023-05-08T10:56:39.630Z,29.98
2023-05-08T10:59:08.614Z,26.35
2023-05-08T11:01:40.550Z,26.62
2023-05-08T11:04:21.648Z,30.50
2023-05-08T11:06:53.245Z,32.11
2023-05-08T11:09:25.185Z,30.41
2023-05-08T11:12:07.340Z,27.26
2023-05-08T11:14:39.558Z,25.05
2023-05-08T11:17:10.911Z,24.56
2023-05-08T11:19:40.112Z,25.43
2023-05-08T11:22:16.942Z,25.13
2023-05-08T11:24:51.111Z,25.95
2023-05-08T11:27:20.342Z,29.08
2023-05-08T11:30:34.987Z,28.73
2023-05-08T11:33:32.418Z,29.21
2023-05-08T11:36:02.568Z,31.81
2023-05-08T11:38:34.299Z,33.59
2023-05-08T11:41:05.467Z,33.20
2023-05-08T11:44:00.928Z,29.51
2023-05-08T11:46:40.704Z,30.97
2023-05-08T11:49:16.745Z,32.33
2023-05-08T11:51:47.769Z,31.83
2023-05-08T11:54:19.329Z,30.17
2023-05-08T11:56:49.335Z,27.95
2023-05-08T11:59:18.153Z,26.55
2023-05-08T12:02:06.769Z,24.77
2023-05-08T12:04:47.178Z,24.04
2023-05-08T12:07:17.337Z,25.90
2023-05-08T12:09:47.502Z,28.39
2023-05-08T12:12:16.218Z,31.36
2023-05-08T12:14:45.303Z,32.96
2023-05-08T12:17:19.006Z,34.34
2023-05-08T12:19:49.824Z,34.81
2023-05-08T12:22:18.900Z,35.27
2023-05-08T12:24:48.168Z,36.68
2023-05-08T12:27:17.166Z,31.64
2023-05-08T12:29:46.862Z,28.09
2023-05-08T12:32:15.665Z,29.39
2023-05-08T12:34:44.260Z,30.78
2023-05-08T12:37:25.054Z,32.44
2023-05-08T12:39:54.122Z,32.79
2023-05-08T12:42:23.106Z,32.90
2023-05-08T12:44:52.729Z,31.78
2023-05-08T12:47:21.974Z,29.06
2023-05-08T12:49:51.138Z,31.07
2023-05-08T12:52:22.748Z,33.17
2023-05-08T12:54:51.679Z,31.89
2023-05-08T12:57:22.763Z,30.88
2023-05-08T12:59:51.972Z,31.77
2023-05-08T13:02:23.864Z,29.57
2023-05-08T13:04:56.118Z,29.69
2023-05-08T13:07:33.081Z,30.92
2023-05-08T13:10:04.961Z,32.06
2023-05-08T13:12:34.087Z,32.35
2023-05-08T13:15:04.965Z,32.50
2023-05-08T13:17:34.144Z,32.73
2023-05-08T13:20:05.897Z,32.40
2023-05-08T13:22:36.289Z,32.84
2023-05-08T13:25:06.022Z,33.21
2023-05-08T13:27:35.160Z,33.35
2023-05-08T13:30:04.058Z,30.61
2023-05-08T13:32:33.264Z,30.05
2023-05-08T13:35:02.160Z,29.39
2023-05-08T13:37:30.710Z,30.38
2023-05-08T13:40:01.085Z,30.89
2023-05-08T13:42:30.198Z,30.74
2023-05-08T13:44:59.159Z,29.46
2023-05-08T13:47:28.169Z,28.71
2023-05-08T13:49:56.749Z,28.11
2023-05-08T13:52:25.736Z,27.08
2023-05-08T13:54:54.670Z,25.77
2023-05-08T13:57:25.133Z,24.55
2023-05-08T13:59:54.159Z,24.54
2023-05-08T14:02:23.342Z,24.07
2023-05-08T14:04:52.083Z,22.88
2023-05-08T14:07:21.132Z,24.14
2023-05-08T14:09:50.221Z,22.57
2023-05-08T14:12:19.104Z,23.42
2023-05-08T14:14:49.624Z,24.60
2023-05-08T14:17:22.547Z,25.13
2023-05-08T14:19:51.146Z,25.79
2023-05-08T14:22:20.197Z,25.29
2023-05-08T14:24:49.273Z,24.04
2023-05-08T14:27:18.118Z,22.46
2023-05-08T14:29:47.107Z,21.71
2023-05-08T14:32:17.570Z,19.86
2023-05-08T14:34:45.852Z,18.99
2023-05-08T14:37:14.726Z,18.53
2023-05-08T14:39:43.869Z,19.03
2023-05-08T14:44:45.080Z,18.68
2023-05-08T14:47:14.046Z,18.12
2023-05-08T14:49:44.075Z,19.08
2023-05-08T14:52:13.076Z,20.43
2023-05-08T14:54:42.247Z,21.26
2023-05-08T14:57:11.337Z,20.63
2023-05-08T14:59:49.074Z,21.20
2023-05-08T15:02:21.347Z,22.41
2023-05-08T15:04:51.264Z,23.33
2023-05-08T15:07:20.104Z,23.93
2023-05-08T15:09:49.216Z,23.62
2023-05-08T15:12:18.205Z,23.73
2023-05-08T15:14:47.975Z,22.96
2023-05-08T15:17:16.843Z,20.51
2023-05-08T15:19:45.851Z,19.14
2023-05-08T15:22:17.908Z,18.18
2023-05-08T15:24:46.830Z,17.77
2023-05-08T15:27:15.890Z,17.67
2023-05-08T15:29:44.914Z,17.18
2023-05-08T15:32:14.017Z,17.28
2023-05-08T15:34:42.746Z,18.09
2023-05-08T15:37:11.822Z,20.66
2023-05-08T15:39:43.348Z,22.44
2023-05-08T15:42:12.434Z,24.97
2023-05-08T15:44:54.763Z,27.35
2023-05-08T15:47:24.303Z,29.55
2023-05-08T15:49:52.911Z,30.92
2023-05-08T15:52:22.855Z,32.30
2023-05-08T15:54:53.438Z,31.13
2023-05-08T15:57:22.624Z,31.21
2023-05-08T15:59:51.495Z,29.87
2023-05-08T16:02:20.526Z,29.50
2023-05-08T16:04:49.177Z,28.09
2023-05-08T16:07:18.118Z,27.65
2023-05-08T16:09:47.031Z,26.71
2023-05-08T16:12:19.841Z,27.89
2023-05-08T16:14:48.853Z,29.18
2023-05-08T16:17:17.916Z,29.57
2023-05-08T16:19:46.702Z,29.04
2023-05-08T16:22:15.764Z,27.76
2023-05-08T16:24:44.802Z,27.88
2023-05-08T16:27:13.838Z,26.70
2023-05-08T16:29:44.180Z,21.30
2023-05-08T16:32:13.392Z,21.60
2023-05-08T16:34:41.906Z,19.42
2023-05-08T16:37:11.215Z,19.55
2023-05-08T16:39:40.287Z,21.55
2023-05-08T16:42:09.902Z,23.37
2023-05-08T16:44:39.305Z,23.95
2023-05-08T16:47:10.260Z,24.13
2023-05-08T16:49:38.803Z,24.13
2023-05-08T16:52:07.850Z,23.80
2023-05-08T16:54:36.919Z,23.60
2023-05-08T16:57:06.563Z,22.73
2023-05-08T16:59:35.580Z,22.59
2023-05-08T17:02:04.653Z,23.47
2023-05-08T17:04:34.656Z,23.90
2023-05-08T17:07:05.819Z,23.43
2023-05-08T17:09:35.390Z,22.93
2023-05-08T17:12:04.758Z,22.17
2023-05-08T17:14:33.894Z,21.18
2023-05-08T17:17:02.917Z,19.62
2023-05-08T17:19:31.676Z,18.03
2023-05-08T17:22:02.190Z,17.52
2023-05-08T17:24:32.516Z,17.37
2023-05-08T17:27:01.813Z,16.79
2023-05-08T17:29:31.512Z,15.67
2023-05-08T17:32:00.645Z,14.88
2023-05-08T17:34:29.273Z,14.21
2023-05-08T17:36:58.279Z,13.68
2023-05-08T17:39:28.982Z,13.31
2023-05-08T17:41:58.058Z,12.91
2023-05-08T17:44:28.329Z,12.56
2023-05-08T17:46:57.127Z,12.15
2023-05-08T17:49:26.822Z,12.02
2023-05-08T17:51:55.866Z,11.85
2023-05-08T17:54:27.278Z,11.63
2023-05-08T17:56:57.900Z,11.37
2023-05-08T17:59:26.960Z,11.20
2023-05-08T18:01:55.850Z,11.09
2023-05-08T18:04:24.938Z,10.62
2023-05-08T18:06:54.131Z,10.55
2023-05-08T18:09:23.135Z,10.53
2023-05-08T18:11:52.154Z,10.39
2023-05-08T18:14:22.496Z,10.18
2023-05-08T18:16:51.009Z,10.12
2023-05-08T18:19:19.937Z,10.03
2023-05-08T18:21:48.958Z,9.95
2023-05-08T18:24:21.035Z,9.88
2023-05-08T18:26:52.361Z,9.82
2023-05-08T18:29:23.884Z,9.78
2023-05-08T18:31:54.770Z,9.64
2023-05-08T18:34:23.819Z,9.54
2023-05-08T18:36:54.941Z,9.45
2023-05-08T18:39:25.278Z,9.31
2023-05-08T18:41:54.360Z,9.19
2023-05-08T18:44:25.650Z,9.20
2023-05-08T18:46:54.555Z,9.08
2023-05-08T18:49:23.924Z,8.97
2023-05-08T18:51:52.853Z,8.96
2023-05-08T18:54:23.898Z,8.93
2023-05-08T18:56:52.988Z,8.82
2023-05-08T18:59:22.346Z,8.82
2023-05-08T19:01:52.546Z,8.75
2023-05-08T19:04:21.476Z,8.65
2023-05-08T19:06:50.710Z,8.56
2023-05-08T19:09:20.640Z,8.52
2023-05-08T19:11:49.824Z,8.53
2023-05-08T19:14:18.754Z,8.49
2023-05-08T19:16:47.292Z,8.38
2023-05-08T19:19:17.722Z,8.34
2023-05-08T19:21:46.655Z,8.37
2023-05-08T19:24:19.823Z,8.27
2023-05-08T19:26:48.852Z,8.20
2023-05-08T19:29:17.811Z,8.13
2023-05-08T19:31:46.403Z,8.03
2023-05-08T19:34:15.523Z,8.03
2023-05-08T19:36:46.257Z,8.05
2023-05-08T19:39:15.582Z,8.07
2023-05-08T19:41:44.700Z,8.11
2023-05-08T19:44:13.867Z,8.09
2023-05-08T19:46:44.347Z,8.13
2023-05-08T19:49:14.508Z,8.11
2023-05-08T19:51:43.743Z,8.07
2023-05-08T19:54:14.146Z,8.06
2023-05-08T19:56:42.831Z,7.93
2023-05-08T19:59:11.904Z,7.83
2023-05-08T20:01:40.538Z,7.78
2023-05-08T20:04:09.760Z,7.68
2023-05-08T20:06:39.393Z,7.77
2023-05-08T20:09:08.802Z,7.77
2023-05-08T20:11:39.268Z,7.67
2023-05-08T20:14:08.566Z,7.57
2023-05-08T20:16:37.379Z,7.46
2023-05-08T20:19:09.549Z,7.49
2023-05-08T20:21:42.161Z,7.41
2023-05-08T20:24:11.481Z,7.32
2023-05-08T20:26:41.911Z,7.21
2023-05-08T20:29:11.078Z,7.15
2023-05-08T20:31:41.003Z,7.09
2023-05-08T20:34:09.791Z,7.11
2023-05-08T20:36:38.841Z,7.08
2023-05-08T20:39:07.902Z,7.19
2023-05-08T20:41:37.561Z,7.13
2023-05-08T20:44:08.080Z,7.11
2023-05-08T20:46:37.078Z,7.11
2023-05-08T20:49:06.216Z,7.04
2023-05-08T20:51:36.416Z,7.01
2023-05-08T20:54:05.428Z,7.01
2023-05-08T20:56:35.889Z,7.02
2023-05-08T20:59:04.498Z,7.03
2023-05-08T21:01:34.438Z,7.08
2023-05-08T21:04:03.085Z,6.97
2023-05-08T21:06:32.233Z,6.90
2023-05-08T21:09:01.274Z,6.88
2023-05-08T21:11:30.244Z,6.78
2023-05-08T21:13:59.206Z,6.75
2023-05-08T21:16:27.881Z,6.74
2023-05-08T21:18:58.620Z,6.67
2023-05-08T21:21:28.097Z,6.62
2023-05-08T21:23:57.018Z,6.64
2023-05-08T21:26:26.010Z,6.64
2023-05-08T21:28:54.772Z,6.68
2023-05-08T21:31:23.875Z,6.59
2023-05-08T21:33:53.204Z,6.55
2023-05-08T21:36:23.778Z,6.55
2023-05-08T21:38:53.547Z,6.51
2023-05-08T21:41:22.943Z,6.52
2023-05-08T21:43:51.658Z,6.48
2023-05-08T21:46:20.610Z,6.46
2023-05-08T21:48:49.625Z,6.43
2023-05-08T21:51:18.596Z,6.37
2023-05-08T21:53:49.014Z,6.36
2023-05-08T21:56:17.775Z,6.31
2023-05-08T21:58:46.246Z,6.26
2023-05-08T22:01:15.525Z,6.28
2023-05-08T22:03:44.629Z,6.27
2023-05-08T22:06:13.645Z,6.20
2023-05-08T22:08:42.604Z,6.03
2023-05-08T22:11:12.958Z,5.86
2023-05-08T22:13:41.636Z,5.62
2023-05-08T22:16:10.592Z,5.45
2023-05-08T22:18:39.639Z,5.33
2023-05-08T22:21:08.611Z,5.24
2023-05-08T22:23:37.607Z,5.12
2023-05-08T22:26:06.547Z,5.01
2023-05-08T22:28:36.587Z,4.90
2023-05-08T22:31:06.814Z,4.85
2023-05-08T22:33:35.913Z,4.81
2023-05-08T22:36:05.087Z,4.79
2023-05-08T22:38:34.086Z,4.78
2023-05-08T22:41:04.012Z,4.78
2023-05-08T22:43:33.439Z,4.80
2023-05-08T22:46:04.256Z,4.78
2023-05-08T22:48:33.464Z,4.71
2023-05-08T22:51:02.469Z,4.65
2023-05-08T22:53:31.416Z,4.60
2023-05-08T22:56:00.285Z,4.58
2023-05-08T22:58:29.375Z,4.56
2023-05-08T23:00:59.690Z,4.58
2023-05-08T23:03:29.870Z,4.62
2023-05-08T23:05:58.990Z,4.57
2023-05-08T23:08:27.957Z,4.52
2023-05-08T23:10:56.890Z,4.50
2023-05-08T23:13:25.984Z,4.45
2023-05-08T23:15:55.036Z,4.49
2023-05-08T23:18:24.440Z,4.49
2023-05-08T23:20:54.880Z,4.53
2023-05-08T23:23:23.445Z,4.60
2023-05-08T23:25:52.345Z,4.60
2023-05-08T23:28:21.254Z,4.62
2023-05-08T23:30:50.146Z,4.62
2023-05-08T23:33:19.873Z,4.58
2023-05-08T23:35:48.809Z,4.53
2023-05-08T23:38:19.106Z,4.47
2023-05-08T23:40:47.654Z,4.41
2023-05-08T23:43:16.506Z,4.37
2023-05-08T23:45:45.415Z,4.35
2023-05-08T23:48:14.411Z,4.27
2023-05-08T23:50:43.295Z,4.20
2023-05-08T23:53:12.410Z,4.13
2023-05-08T23:55:42.427Z,4.07
2023-05-08T23:58:11.434Z,4.04
